Time;durP1;ratioP1;P1;durP2;ratioP2;P2;SDS_P1;SDS_P2;PMS_P1;PMS_P2;Temp;Humidity;BMP_temperature;BMP_pressure;BME280_temperature;BME280_humidity;BME280_pressure;Samples;Min_cycle;Max_cycle;Signal;HPM_P1;HPM_P2
2021/12/31 00:01:45;;;;;;;20.43;14.03;;;12.90;99.90;;;;;;10217268;28;20196;-88
2021/12/31 00:06:47;;;;;;;17.67;11.67;;;12.80;99.90;;;;;;10238132;29;20644;-89
2021/12/31 00:11:50;;;;;;;13.23;10.23;;;12.80;99.90;;;;;;10210131;29;20247;-89
2021/12/31 00:16:52;;;;;;;15.33;11.40;;;12.40;99.90;;;;;;10218219;29;20255;-89
2021/12/31 00:21:55;;;;;;;14.60;10.57;;;12.70;99.90;;;;;;10208311;29;20660;-89
2021/12/31 00:26:58;;;;;;;16.03;11.00;;;12.80;99.90;;;;;;10209506;29;20270;-89
2021/12/31 00:32:00;;;;;;;16.57;11.57;;;12.90;99.90;;;;;;10225071;29;20689;-89
2021/12/31 00:37:03;;;;;;;15.97;11.40;;;12.90;99.90;;;;;;10226421;28;20323;-88
2021/12/31 00:42:06;;;;;;;17.13;11.70;;;12.60;99.90;;;;;;10214627;29;20259;-88
2021/12/31 00:47:08;;;;;;;13.93;10.03;;;12.70;99.90;;;;;;10191509;29;20231;-89
2021/12/31 00:52:11;;;;;;;16.20;10.00;;;12.70;99.90;;;;;;10236823;29;20250;-90
2021/12/31 00:57:14;;;;;;;16.97;11.63;;;12.70;99.90;;;;;;10250803;28;20254;-89
2021/12/31 01:02:18;;;;;;;13.17;9.47;;;12.80;99.90;;;;;;10249040;28;20233;-89
2021/12/31 01:07:21;;;;;;;14.17;10.67;;;12.90;99.90;;;;;;10231262;29;20246;-90
2021/12/31 01:12:25;;;;;;;13.63;10.23;;;12.80;99.90;;;;;;10229464;28;20274;-88
2021/12/31 01:22:49;;;;;;;14.90;10.30;;;12.80;99.90;;;;;;10229522;29;20302;-90
2021/12/31 01:27:51;;;;;;;13.80;9.93;;;12.60;99.90;;;;;;10246323;29;20611;-88
2021/12/31 01:32:55;;;;;;;15.27;10.30;;;12.80;99.90;;;;;;10237575;28;20253;-89
2021/12/31 01:37:58;;;;;;;12.37;9.37;;;12.90;99.90;;;;;;10254325;28;20266;-88
2021/12/31 01:43:00;;;;;;;14.27;10.80;;;12.90;99.90;;;;;;10229929;29;20234;-89
2021/12/31 01:48:09;;;;;;;16.17;10.93;;;12.80;99.90;;;;;;10209895;29;20313;-89
2021/12/31 01:53:13;;;;;;;15.87;11.57;;;13.00;99.90;;;;;;10236056;29;20244;-89
2021/12/31 01:58:20;;;;;;;15.37;10.07;;;13.00;99.90;;;;;;10254946;28;20324;-88
2021/12/31 02:03:24;;;;;;;15.07;10.13;;;12.90;99.90;;;;;;10225190;28;20234;-89
2021/12/31 02:08:29;;;;;;;11.57;9.43;;;13.10;99.90;;;;;;10231955;29;20695;-90
2021/12/31 02:13:32;;;;;;;13.33;10.13;;;12.90;99.90;;;;;;10198723;29;20770;-89
2021/12/31 02:18:35;;;;;;;13.40;9.57;;;12.90;99.90;;;;;;10212602;29;20309;-90
2021/12/31 02:23:46;;;;;;;14.10;9.87;;;12.90;99.90;;;;;;10241826;29;20238;-88
2021/12/31 02:28:49;;;;;;;14.40;10.97;;;12.90;99.90;;;;;;10243536;29;20230;-89
2021/12/31 02:33:51;;;;;;;14.97;11.07;;;12.90;99.90;;;;;;10216494;29;20752;-89
2021/12/31 02:38:53;;;;;;;13.73;10.80;;;13.00;99.90;;;;;;10221356;29;20239;-89
2021/12/31 02:43:56;;;;;;;14.57;11.20;;;13.00;99.90;;;;;;10213718;29;20638;-89
2021/12/31 02:48:58;;;;;;;13.53;9.70;;;13.10;99.90;;;;;;10213124;29;20708;-88
2021/12/31 02:54:07;;;;;;;13.93;10.03;;;13.00;99.90;;;;;;10227467;28;20238;-89
2021/12/31 02:59:10;;;;;;;13.43;9.93;;;13.10;99.90;;;;;;10223884;28;20287;-88
2021/12/31 03:04:16;;;;;;;11.93;9.70;;;13.10;99.90;;;;;;10224984;29;20707;-88
2021/12/31 03:09:23;;;;;;;13.07;9.57;;;13.00;99.90;;;;;;10205915;29;20211;-88
2021/12/31 03:14:28;;;;;;;11.93;9.40;;;13.10;99.90;;;;;;10213112;29;20286;-89
2021/12/31 03:19:30;;;;;;;14.27;10.40;;;13.10;99.90;;;;;;10212722;29;20625;-90
2021/12/31 03:24:33;;;;;;;13.37;9.33;;;13.00;99.90;;;;;;10230292;29;20275;-89
2021/12/31 03:29:35;;;;;;;11.67;8.73;;;13.10;99.90;;;;;;10205213;29;20235;-88
2021/12/31 03:34:38;;;;;;;10.47;7.87;;;13.10;99.90;;;;;;10201907;28;20265;-89
2021/12/31 03:39:41;;;;;;;11.63;9.03;;;13.10;99.90;;;;;;10217531;29;20246;-88
2021/12/31 03:44:43;;;;;;;13.90;9.33;;;13.10;99.90;;;;;;10216466;29;20293;-89
2021/12/31 03:49:45;;;;;;;11.30;8.63;;;13.00;99.90;;;;;;10243247;29;20315;-89
2021/12/31 03:54:49;;;;;;;12.80;9.47;;;12.90;99.90;;;;;;10219576;29;20239;-88
2021/12/31 03:59:54;;;;;;;11.37;9.17;;;13.00;99.90;;;;;;10216737;29;20292;-88
2021/12/31 04:04:56;;;;;;;7.53;6.40;;;13.00;99.90;;;;;;10204330;29;20231;-89
2021/12/31 04:09:59;;;;;;;10.50;7.70;;;13.00;99.90;;;;;;10213402;29;20293;-89
2021/12/31 04:15:02;;;;;;;12.73;8.73;;;12.90;99.90;;;;;;10207060;29;20250;-88
2021/12/31 04:20:07;;;;;;;12.07;8.53;;;13.00;99.90;;;;;;10202065;29;20248;-88
2021/12/31 04:25:10;;;;;;;12.70;8.90;;;13.00;99.90;;;;;;10248029;28;20290;-89
2021/12/31 04:30:13;;;;;;;10.37;7.50;;;12.90;99.90;;;;;;10213127;29;20273;-88
2021/12/31 04:35:18;;;;;;;10.80;8.40;;;12.80;99.90;;;;;;10195997;29;20295;-88
2021/12/31 04:40:20;;;;;;;12.50;8.50;;;12.90;99.90;;;;;;10209115;29;20244;-88
2021/12/31 04:45:25;;;;;;;11.13;8.27;;;12.90;99.90;;;;;;10208997;29;20266;-89
2021/12/31 04:50:27;;;;;;;8.07;7.00;;;12.80;99.90;;;;;;10191932;29;20256;-89
2021/12/31 04:55:31;;;;;;;11.30;8.20;;;12.70;99.90;;;;;;10216193;29;20262;-88
2021/12/31 05:00:34;;;;;;;6.37;5.30;;;12.80;99.90;;;;;;10191627;29;20247;-89
2021/12/31 05:05:37;;;;;;;10.40;8.10;;;12.70;99.90;;;;;;10223561;29;20275;-88
2021/12/31 05:10:40;;;;;;;9.20;7.47;;;12.70;99.90;;;;;;10231554;28;20799;-89
2021/12/31 05:15:47;;;;;;;7.10;6.40;;;12.70;99.90;;;;;;10240307;29;20251;-88
2021/12/31 05:20:49;;;;;;;9.97;7.93;;;12.60;99.90;;;;;;10208517;29;20302;-88
2021/12/31 05:25:52;;;;;;;7.03;5.80;;;12.80;99.90;;;;;;10191089;29;20258;-88
2021/12/31 05:30:55;;;;;;;10.10;7.67;;;12.90;99.90;;;;;;10227878;29;20249;-88
2021/12/31 05:35:59;;;;;;;8.60;7.30;;;13.00;99.90;;;;;;10223646;28;20263;-88
2021/12/31 05:41:02;;;;;;;8.47;6.80;;;12.90;99.90;;;;;;10214413;29;20235;-87
2021/12/31 05:46:05;;;;;;;9.97;7.77;;;12.90;99.90;;;;;;10246732;28;20297;-88
2021/12/31 05:51:07;;;;;;;8.63;5.90;;;12.90;99.90;;;;;;10241346;29;20732;-88
2021/12/31 05:56:10;;;;;;;9.20;6.63;;;12.90;99.90;;;;;;10218371;29;20258;-88
2021/12/31 06:01:12;;;;;;;9.33;7.20;;;13.10;99.90;;;;;;10203635;29;20629;-88
2021/12/31 06:06:15;;;;;;;7.97;6.40;;;13.10;99.90;;;;;;10233332;28;20636;-88
2021/12/31 06:11:18;;;;;;;7.67;6.53;;;13.10;99.90;;;;;;10243315;29;20273;-88
2021/12/31 06:16:20;;;;;;;9.53;7.17;;;13.10;99.90;;;;;;10225417;29;20326;-88
2021/12/31 06:21:23;;;;;;;10.33;7.60;;;13.10;99.90;;;;;;10225918;28;20656;-89
2021/12/31 06:26:26;;;;;;;5.00;4.27;;;13.10;99.90;;;;;;10231177;29;20294;-87
2021/12/31 06:31:28;;;;;;;6.53;5.83;;;13.10;99.90;;;;;;10212118;29;20265;-87
2021/12/31 06:36:31;;;;;;;6.83;5.73;;;13.10;99.90;;;;;;10229400;29;20308;-89
2021/12/31 06:41:33;;;;;;;6.77;6.07;;;13.20;99.90;;;;;;10215065;28;20238;-88
2021/12/31 06:46:36;;;;;;;7.40;5.20;;;13.10;99.90;;;;;;10230947;28;20305;-88
2021/12/31 06:51:38;;;;;;;7.37;5.63;;;13.20;99.90;;;;;;10230442;29;20279;-88
2021/12/31 06:56:41;;;;;;;6.97;5.57;;;13.20;99.90;;;;;;10212275;29;20664;-88
2021/12/31 07:01:43;;;;;;;7.67;5.83;;;13.00;99.90;;;;;;10231617;29;20238;-88
2021/12/31 07:06:46;;;;;;;7.80;6.00;;;13.10;99.90;;;;;;10229752;29;21033;-89
2021/12/31 07:11:49;;;;;;;10.10;6.73;;;13.10;99.90;;;;;;10231892;29;20247;-89
2021/12/31 07:16:51;;;;;;;8.43;6.50;;;13.00;99.90;;;;;;10229517;28;20329;-89
2021/12/31 07:21:54;;;;;;;7.50;5.97;;;13.10;99.90;;;;;;10205602;29;20686;-89
2021/12/31 07:26:56;;;;;;;8.17;6.43;;;13.10;99.90;;;;;;10232250;29;20211;-90
2021/12/31 07:31:59;;;;;;;8.23;6.60;;;13.10;99.90;;;;;;10246147;28;20765;-89
2021/12/31 07:37:02;;;;;;;7.73;6.40;;;13.20;99.90;;;;;;10237318;29;20293;-89
2021/12/31 07:42:04;;;;;;;6.70;5.37;;;13.20;99.90;;;;;;10223962;29;20242;-89
2021/12/31 07:47:10;;;;;;;7.20;5.83;;;13.10;99.90;;;;;;10236492;29;20307;-89
2021/12/31 07:52:13;;;;;;;7.10;5.60;;;13.20;99.90;;;;;;10216224;29;20692;-89
2021/12/31 07:57:15;;;;;;;6.10;5.37;;;13.30;99.90;;;;;;10194728;29;20342;-90
2021/12/31 08:02:18;;;;;;;6.50;5.20;;;13.20;99.90;;;;;;10225476;28;20211;-88
2021/12/31 08:07:21;;;;;;;8.83;6.33;;;13.20;99.90;;;;;;10293252;28;20190;-90
2021/12/31 08:12:27;;;;;;;7.43;6.33;;;13.30;99.90;;;;;;10298856;28;20273;-89
2021/12/31 08:17:29;;;;;;;7.83;5.90;;;13.20;99.90;;;;;;10301842;28;20238;-91
2021/12/31 08:22:32;;;;;;;7.20;6.07;;;13.30;99.90;;;;;;10300615;28;20220;-90
2021/12/31 08:27:35;;;;;;;7.47;6.10;;;13.30;99.90;;;;;;10263335;29;20223;-89
2021/12/31 08:32:38;;;;;;;9.07;6.33;;;13.30;99.90;;;;;;10294117;28;20184;-91
2021/12/31 08:37:40;;;;;;;9.20;6.33;;;13.30;99.90;;;;;;10303060;28;20248;-90
2021/12/31 08:42:43;;;;;;;7.87;6.53;;;13.40;99.90;;;;;;10245161;28;20203;-89
2021/12/31 08:47:46;;;;;;;7.70;6.23;;;13.30;99.90;;;;;;10252966;28;20243;-94
2021/12/31 08:52:48;;;;;;;7.40;6.20;;;13.40;99.90;;;;;;10277324;28;20218;-91
2021/12/31 08:57:51;;;;;;;8.47;6.43;;;13.30;99.90;;;;;;10318608;28;20210;-89
2021/12/31 09:02:54;;;;;;;9.07;5.80;;;13.30;99.90;;;;;;10256634;29;20196;-90
2021/12/31 09:07:56;;;;;;;7.63;6.20;;;13.50;99.90;;;;;;10218494;29;20221;-91
2021/12/31 09:12:59;;;;;;;7.60;5.80;;;13.80;99.90;;;;;;10236914;28;20211;-90
2021/12/31 09:18:02;;;;;;;5.87;4.80;;;14.30;99.90;;;;;;10243830;28;20609;-91
2021/12/31 09:23:05;;;;;;;6.93;5.63;;;14.50;99.90;;;;;;10273961;28;20217;-90
2021/12/31 09:28:07;;;;;;;7.17;5.00;;;14.50;99.90;;;;;;10254867;29;20209;-90
2021/12/31 09:33:10;;;;;;;7.27;5.20;;;14.60;99.90;;;;;;10217624;29;20216;-90
2021/12/31 09:38:12;;;;;;;7.30;4.97;;;14.70;99.90;;;;;;10242273;28;20231;-90
2021/12/31 09:43:15;;;;;;;7.37;5.63;;;14.70;99.90;;;;;;10271115;28;20256;-89
2021/12/31 09:48:20;;;;;;;9.67;5.87;;;14.40;99.90;;;;;;10259409;28;20644;-90
2021/12/31 09:53:26;;;;;;;7.30;5.57;;;13.90;99.90;;;;;;10229278;29;20212;-89
2021/12/31 09:58:28;;;;;;;8.70;5.77;;;13.70;99.90;;;;;;10234549;29;20262;-89
2021/12/31 10:03:33;;;;;;;12.27;5.53;;;13.60;99.90;;;;;;10240169;29;20231;-91
2021/12/31 10:08:41;;;;;;;4.57;4.13;;;13.50;99.90;;;;;;10251799;29;20279;-89
2021/12/31 10:13:51;;;;;;;7.27;5.63;;;13.80;99.90;;;;;;10236312;28;20231;-90
2021/12/31 10:19:10;;;;;;;7.30;5.83;;;14.10;99.90;;;;;;10241784;28;20254;-90
2021/12/31 10:24:35;;;;;;;6.90;5.73;;;13.70;99.90;;;;;;10234519;29;20948;-90
2021/12/31 10:29:51;;;;;;;8.13;6.30;;;13.60;99.90;;;;;;10219891;29;20633;-88
2021/12/31 10:35:07;;;;;;;6.03;5.30;;;13.50;99.90;;;;;;10199366;29;20207;-89
2021/12/31 10:40:10;;;;;;;7.03;6.07;;;13.50;99.90;;;;;;10228690;29;20322;-88
2021/12/31 10:45:13;;;;;;;7.33;6.27;;;13.40;99.90;;;;;;10231457;29;20234;-89
2021/12/31 10:50:18;;;;;;;9.37;6.57;;;13.30;99.90;;;;;;10202341;29;20625;-90
2021/12/31 10:55:30;;;;;;;7.60;5.43;;;12.50;99.90;;;;;;10196290;29;20259;-90
2021/12/31 11:00:35;;;;;;;11.57;5.63;;;12.50;99.90;;;;;;10224008;28;20306;-89
2021/12/31 11:05:37;;;;;;;6.77;4.37;;;13.50;99.90;;;;;;10223612;29;20241;-96
2021/12/31 11:10:40;;;;;;;12.17;6.90;;;13.70;99.90;;;;;;10211405;29;20262;-94
2021/12/31 11:15:44;;;;;;;9.40;7.10;;;12.90;99.90;;;;;;10231361;29;20211;-95
2021/12/31 11:20:48;;;;;;;8.23;6.97;;;13.10;99.90;;;;;;10243431;29;20242;-94
2021/12/31 11:25:55;;;;;;;8.30;6.10;;;13.30;99.90;;;;;;10236409;28;20199;-94
2021/12/31 11:31:16;;;;;;;9.90;6.60;;;13.30;99.90;;;;;;10232770;28;20206;-93
2021/12/31 11:36:40;;;;;;;9.20;7.10;;;13.20;99.90;;;;;;10226137;29;20218;-94
2021/12/31 11:41:43;;;;;;;9.63;7.27;;;13.40;99.90;;;;;;10199280;29;20239;-95
2021/12/31 11:46:47;;;;;;;9.37;7.00;;;13.40;99.90;;;;;;10202694;28;20204;-93
2021/12/31 11:52:05;;;;;;;9.57;6.40;;;13.40;99.90;;;;;;10221531;28;20266;-95
2021/12/31 11:57:17;;;;;;;9.23;7.50;;;13.40;99.90;;;;;;10205847;29;20304;-93
2021/12/31 12:02:31;;;;;;;7.73;6.17;;;13.40;99.90;;;;;;10209879;29;20231;-94
2021/12/31 12:07:48;;;;;;;8.37;6.60;;;13.30;99.90;;;;;;10214470;28;20240;-93
2021/12/31 12:12:53;;;;;;;8.17;6.50;;;13.30;99.90;;;;;;10215663;29;20571;-93
2021/12/31 12:17:56;;;;;;;8.80;6.53;;;13.40;99.90;;;;;;10212649;29;20275;-94
2021/12/31 12:22:59;;;;;;;8.23;6.87;;;13.40;99.90;;;;;;10211986;29;20685;-94
2021/12/31 12:28:09;;;;;;;12.63;7.80;;;13.30;99.90;;;;;;10212152;29;20292;-94
2021/12/31 12:33:18;;;;;;;9.60;7.30;;;13.40;99.90;;;;;;10234883;29;20223;-95
2021/12/31 12:38:30;;;;;;;8.43;6.47;;;13.40;99.90;;;;;;10196984;29;20230;-93
2021/12/31 12:43:47;;;;;;;10.13;6.93;;;13.40;99.90;;;;;;10209912;29;20203;-93
2021/12/31 12:48:51;;;;;;;9.93;6.40;;;13.40;99.90;;;;;;10233014;29;20235;-94
2021/12/31 12:53:54;;;;;;;8.33;6.87;;;13.40;99.90;;;;;;10212578;29;20272;-92
2021/12/31 12:59:00;;;;;;;8.93;6.93;;;13.40;99.90;;;;;;10211794;29;20274;-93
2021/12/31 13:04:06;;;;;;;7.77;6.23;;;13.40;99.90;;;;;;10199553;29;20842;-95
2021/12/31 13:09:13;;;;;;;9.13;7.07;;;13.40;99.90;;;;;;10214884;29;20275;-94
2021/12/31 13:14:18;;;;;;;8.80;6.77;;;13.40;99.90;;;;;;10210828;29;20210;-94
2021/12/31 13:19:28;;;;;;;9.53;6.60;;;13.40;99.90;;;;;;10205606;29;20216;-94
2021/12/31 13:24:31;;;;;;;9.73;6.73;;;13.40;99.90;;;;;;10207661;29;20203;-94
2021/12/31 13:29:39;;;;;;;9.40;7.40;;;13.30;99.90;;;;;;10227122;29;20236;-92
2021/12/31 13:34:54;;;;;;;7.07;5.50;;;13.20;99.90;;;;;;10212308;29;20303;-90
2021/12/31 13:40:19;;;;;;;9.00;5.30;;;13.40;99.90;;;;;;10190376;29;20856;-90
2021/12/31 13:45:24;;;;;;;8.77;5.10;;;14.40;99.90;;;;;;10225613;28;20232;-90
2021/12/31 13:50:31;;;;;;;6.47;4.73;;;15.10;99.90;;;;;;10224568;29;20293;-90
2021/12/31 13:55:35;;;;;;;9.40;5.77;;;15.20;99.90;;;;;;10208629;29;20244;-91
2021/12/31 14:00:40;;;;;;;7.27;5.63;;;15.60;99.90;;;;;;10224568;29;20333;-90
2021/12/31 14:05:49;;;;;;;6.47;5.73;;;15.60;99.90;;;;;;10207824;29;20229;-92
2021/12/31 14:10:52;;;;;;;6.53;5.83;;;15.80;99.90;;;;;;10226036;29;20246;-91
2021/12/31 14:15:54;;;;;;;7.73;6.60;;;16.10;99.90;;;;;;10211230;29;20242;-90
2021/12/31 14:20:57;;;;;;;6.67;5.77;;;16.10;99.90;;;;;;10191545;28;20672;-91
2021/12/31 14:26:04;;;;;;;7.07;5.90;;;16.00;99.90;;;;;;10191776;29;20247;-91
2021/12/31 14:31:08;;;;;;;7.33;5.73;;;16.30;99.90;;;;;;10225770;28;20238;-90
2021/12/31 14:36:12;;;;;;;8.00;6.23;;;;;;;;;;10212913;29;20333;-89
2021/12/31 14:41:23;;;;;;;8.37;6.00;;;16.10;99.90;;;;;;10214928;28;20269;-90
2021/12/31 14:46:27;;;;;;;7.80;6.70;;;16.10;99.90;;;;;;10211561;29;20620;-90
2021/12/31 14:51:30;;;;;;;7.13;5.83;;;16.20;99.90;;;;;;10236135;28;20234;-89
2021/12/31 14:56:32;;;;;;;6.80;5.43;;;16.20;99.90;;;;;;10219709;28;20245;-90
2021/12/31 15:01:36;;;;;;;6.13;5.53;;;16.30;99.90;;;;;;10235014;29;20754;-89
2021/12/31 15:06:39;;;;;;;7.70;5.70;;;16.20;99.90;;;;;;10252324;29;20234;-90
2021/12/31 15:11:41;;;;;;;6.97;6.07;;;16.20;99.90;;;;;;10228463;29;20289;-90
2021/12/31 15:16:44;;;;;;;6.57;5.93;;;16.10;99.90;;;;;;10218394;29;20277;-90
2021/12/31 15:21:46;;;;;;;6.07;5.47;;;16.10;99.90;;;;;;9862615;28;10000523;-89
2021/12/31 15:26:53;;;;;;;6.90;6.20;;;15.90;99.90;;;;;;10216196;29;20233;-89
2021/12/31 15:31:55;;;;;;;6.83;5.70;;;16.00;99.90;;;;;;10194822;29;20270;-89
2021/12/31 15:36:58;;;;;;;9.20;6.10;;;15.90;99.90;;;;;;10210403;29;20268;-89
2021/12/31 15:42:00;;;;;;;6.77;5.50;;;15.80;99.90;;;;;;10204947;29;20263;-89
2021/12/31 15:47:03;;;;;;;7.97;6.13;;;15.90;99.90;;;;;;10234869;29;20652;-89
2021/12/31 15:52:06;;;;;;;7.83;5.73;;;16.00;99.90;;;;;;10215760;28;20704;-89
2021/12/31 15:57:08;;;;;;;6.67;5.63;;;15.90;99.90;;;;;;10204375;29;20297;-89
2021/12/31 16:02:12;;;;;;;9.13;5.80;;;15.90;99.90;;;;;;10208881;29;20243;-88
2021/12/31 16:07:15;;;;;;;12.00;6.50;;;15.90;99.90;;;;;;10212665;29;20718;-88
2021/12/31 16:12:18;;;;;;;8.37;5.90;;;15.70;99.90;;;;;;10230747;28;20278;-89
2021/12/31 16:17:42;;;;;;;6.87;5.77;;;15.80;99.90;;;;;;10215861;29;20278;-88
2021/12/31 16:22:45;;;;;;;7.33;5.47;;;15.70;99.90;;;;;;10219689;28;20245;-89
2021/12/31 16:27:48;;;;;;;7.37;6.07;;;15.70;99.90;;;;;;10211011;29;20679;-89
2021/12/31 16:32:50;;;;;;;9.40;5.80;;;15.60;99.90;;;;;;10192184;29;20668;-89
2021/12/31 16:37:53;;;;;;;7.83;6.23;;;15.60;99.90;;;;;;10192546;29;20637;-89
2021/12/31 16:42:55;;;;;;;6.23;5.63;;;15.50;99.90;;;;;;10192218;29;20298;-90
2021/12/31 16:47:58;;;;;;;8.97;6.70;;;15.10;99.90;;;;;;10224273;29;20324;-90
2021/12/31 16:53:00;;;;;;;8.50;6.50;;;15.20;99.90;;;;;;10207965;29;20242;-88
2021/12/31 16:58:03;;;;;;;8.80;7.13;;;15.20;99.90;;;;;;10228586;29;20262;-89
2021/12/31 17:03:05;;;;;;;9.63;6.50;;;15.00;99.90;;;;;;10215978;29;20213;-90
2021/12/31 17:08:08;;;;;;;7.63;6.40;;;15.20;99.90;;;;;;10205356;28;20301;-90
2021/12/31 17:13:12;;;;;;;7.20;6.50;;;15.30;99.90;;;;;;10207761;29;20695;-90
2021/12/31 17:18:15;;;;;;;9.97;6.33;;;15.20;99.90;;;;;;10190616;29;20653;-89
2021/12/31 17:23:18;;;;;;;6.87;5.97;;;15.10;99.90;;;;;;10228133;28;20260;-91
2021/12/31 17:28:20;;;;;;;6.67;5.97;;;15.30;99.90;;;;;;10246724;29;20291;-90
2021/12/31 17:33:23;;;;;;;7.53;6.33;;;15.10;99.90;;;;;;10247788;28;20686;-90
2021/12/31 17:38:26;;;;;;;7.70;5.97;;;15.20;99.90;;;;;;10228179;29;20786;-89
2021/12/31 17:43:28;;;;;;;8.33;5.70;;;15.20;99.90;;;;;;10223085;29;20300;-90
2021/12/31 17:48:31;;;;;;;8.27;5.57;;;15.90;99.90;;;;;;10230502;28;20257;-90
2021/12/31 17:53:34;;;;;;;9.03;5.40;;;16.10;99.90;;;;;;10190727;29;20215;-89
2021/12/31 17:58:36;;;;;;;8.57;5.10;;;16.30;99.90;;;;;;10215218;29;20705;-88
2021/12/31 18:03:39;;;;;;;8.10;5.70;;;16.50;99.90;;;;;;10225823;29;20293;-87
2021/12/31 18:08:41;;;;;;;7.63;6.03;;;16.20;99.90;;;;;;10219479;29;20690;-88
2021/12/31 18:13:45;;;;;;;8.63;5.20;;;15.90;99.90;;;;;;10242569;29;20238;-88
2021/12/31 18:18:47;;;;;;;8.87;6.07;;;15.70;99.90;;;;;;10201318;29;20329;-88
2021/12/31 18:23:50;;;;;;;6.37;5.03;;;15.60;99.90;;;;;;10220595;28;20241;-88
2021/12/31 18:28:52;;;;;;;7.07;5.03;;;15.50;99.90;;;;;;10227886;29;20243;-88
2021/12/31 18:33:55;;;;;;;6.37;5.23;;;15.40;99.90;;;;;;9859795;28;10000249;-88
2021/12/31 18:38:58;;;;;;;9.57;5.73;;;15.40;99.90;;;;;;10212084;28;20756;-88
2021/12/31 18:44:01;;;;;;;6.23;5.50;;;15.30;99.90;;;;;;10225323;29;20238;-88
2021/12/31 18:49:07;;;;;;;6.57;5.00;;;15.30;99.90;;;;;;10221156;29;20265;-88
2021/12/31 18:54:09;;;;;;;5.20;4.70;;;15.20;99.90;;;;;;10218037;29;20717;-87
2021/12/31 18:59:12;;;;;;;7.70;5.40;;;15.20;99.90;;;;;;10214051;29;20656;-87
2021/12/31 19:04:15;;;;;;;8.13;5.20;;;15.20;99.90;;;;;;10231915;29;20234;-88
2021/12/31 19:09:17;;;;;;;9.90;5.57;;;15.10;99.90;;;;;;10224260;28;20277;-87
2021/12/31 19:14:21;;;;;;;8.50;5.47;;;15.10;99.90;;;;;;10210206;29;20728;-87
2021/12/31 19:19:25;;;;;;;8.33;4.63;;;15.00;99.90;;;;;;10185008;29;20261;-88
2021/12/31 19:24:28;;;;;;;6.00;5.00;;;15.10;99.90;;;;;;10223961;28;20237;-88
2021/12/31 19:29:32;;;;;;;6.33;5.37;;;15.00;99.90;;;;;;10214632;28;20614;-86
2021/12/31 19:34:35;;;;;;;6.30;4.70;;;15.10;99.90;;;;;;10239089;29;20389;-89
2021/12/31 19:39:38;;;;;;;8.00;5.00;;;15.10;99.90;;;;;;10196986;29;20286;-89
2021/12/31 19:44:40;;;;;;;7.20;4.63;;;15.10;99.90;;;;;;10210478;29;20616;-88
2021/12/31 19:49:43;;;;;;;6.23;4.90;;;15.20;99.90;;;;;;10193538;29;20241;-89
2021/12/31 19:54:45;;;;;;;6.10;4.50;;;15.20;99.90;;;;;;10210486;29;20679;-88
2021/12/31 19:59:48;;;;;;;9.17;4.60;;;15.10;99.90;;;;;;10210827;29;20256;-88
2021/12/31 20:04:50;;;;;;;5.67;4.17;;;15.10;99.90;;;;;;10229391;29;20645;-89
2021/12/31 20:09:53;;;;;;;5.97;4.20;;;15.10;99.90;;;;;;10249985;28;20252;-88
2021/12/31 20:14:57;;;;;;;6.63;4.13;;;15.00;99.90;;;;;;10210628;29;20308;-88
2021/12/31 20:19:59;;;;;;;5.00;4.20;;;14.90;99.90;;;;;;10220270;29;20338;-88
2021/12/31 20:25:03;;;;;;;6.70;4.33;;;14.90;99.90;;;;;;10245580;29;20239;-89
2021/12/31 20:30:08;;;;;;;4.47;4.07;;;14.80;99.90;;;;;;10199087;29;20289;-89
2021/12/31 20:35:13;;;;;;;6.33;4.40;;;14.80;99.90;;;;;;10193009;29;20702;-89
2021/12/31 20:40:17;;;;;;;6.87;5.00;;;14.80;99.90;;;;;;10208428;29;20290;-89
2021/12/31 20:45:19;;;;;;;4.50;4.07;;;14.70;99.90;;;;;;10209936;29;20640;-88
2021/12/31 20:50:23;;;;;;;5.37;4.20;;;14.70;99.90;;;;;;10191580;29;21075;-89
2021/12/31 20:55:25;;;;;;;4.57;3.97;;;14.80;99.90;;;;;;10192698;29;20248;-89
2021/12/31 21:00:28;;;;;;;5.23;3.90;;;14.60;99.90;;;;;;10207658;29;20800;-89
2021/12/31 21:05:34;;;;;;;4.60;4.20;;;14.60;99.90;;;;;;10207597;29;20240;-89
2021/12/31 21:10:36;;;;;;;4.20;3.30;;;14.60;99.90;;;;;;10192188;29;20296;-89
2021/12/31 21:15:39;;;;;;;4.07;3.67;;;14.70;99.90;;;;;;10192773;29;20240;-89
2021/12/31 21:20:42;;;;;;;5.77;3.83;;;14.70;99.90;;;;;;10214714;29;20332;-89
2021/12/31 21:25:45;;;;;;;4.73;4.07;;;14.70;99.90;;;;;;10224015;29;20294;-88
2021/12/31 21:30:50;;;;;;;5.50;4.03;;;14.70;99.90;;;;;;10222736;29;20242;-88
2021/12/31 21:35:52;;;;;;;3.97;3.57;;;14.80;99.90;;;;;;10190725;29;20213;-89
2021/12/31 21:40:55;;;;;;;4.07;3.67;;;14.80;99.90;;;;;;10217437;29;20986;-88
2021/12/31 21:45:57;;;;;;;3.50;3.10;;;14.80;99.90;;;;;;10207185;29;20247;-89
2021/12/31 21:51:00;;;;;;;4.67;4.13;;;14.70;99.90;;;;;;10213898;28;20333;-88
2021/12/31 21:56:04;;;;;;;4.13;3.73;;;14.70;99.90;;;;;;10211065;29;20250;-89
2021/12/31 22:01:07;;;;;;;3.53;3.07;;;14.70;99.90;;;;;;10218383;29;20258;-89
2021/12/31 22:06:09;;;;;;;3.63;3.33;;;14.70;99.90;;;;;;10208093;29;20234;-88
2021/12/31 22:11:12;;;;;;;4.50;3.50;;;14.60;99.90;;;;;;10227502;29;20252;-89
2021/12/31 22:16:16;;;;;;;5.10;3.97;;;14.60;99.90;;;;;;9532501;28;10000705;-90
2021/12/31 22:21:18;;;;;;;5.80;4.30;;;14.60;99.90;;;;;;10196199;29;20339;-91
2021/12/31 22:26:22;;;;;;;4.47;3.90;;;14.60;99.90;;;;;;10213736;28;20300;-90
2021/12/31 22:31:24;;;;;;;5.00;3.93;;;14.50;99.90;;;;;;10281499;28;20248;-90
2021/12/31 22:36:27;;;;;;;5.53;3.43;;;14.40;99.90;;;;;;10234176;29;20271;-91
2021/12/31 22:41:30;;;;;;;4.17;3.10;;;14.50;99.90;;;;;;10234752;29;20619;-91
2021/12/31 22:46:33;;;;;;;4.13;3.47;;;14.50;99.90;;;;;;10202310;29;20251;-90
2021/12/31 22:51:36;;;;;;;4.17;3.23;;;14.40;99.90;;;;;;10251758;29;20289;-90
2021/12/31 22:56:39;;;;;;;3.90;3.37;;;14.50;99.90;;;;;;10235886;29;20290;-90
2021/12/31 23:01:41;;;;;;;10.43;5.57;;;14.30;99.90;;;;;;10226671;29;20259;-88
2021/12/31 23:06:44;;;;;;;19.13;12.43;;;13.50;99.90;;;;;;10229028;28;20235;-88
2021/12/31 23:11:46;;;;;;;68.37;40.73;;;12.80;99.90;;;;;;10230340;29;20912;-88
2021/12/31 23:16:49;;;;;;;50.97;37.23;;;12.50;99.90;;;;;;10224951;28;20689;-90
2021/12/31 23:21:51;;;;;;;44.90;33.73;;;12.80;99.90;;;;;;10209085;29;20279;-90
2021/12/31 23:26:54;;;;;;;43.80;31.53;;;13.40;99.90;;;;;;10237965;29;20237;-90
2021/12/31 23:31:56;;;;;;;47.33;30.80;;;13.60;99.90;;;;;;10211902;29;20234;-90
2021/12/31 23:36:59;;;;;;;43.20;29.50;;;13.90;99.90;;;;;;10209044;29;20245;-90
2021/12/31 23:42:08;;;;;;;42.13;27.93;;;14.00;99.90;;;;;;10230467;29;20265;-90
2021/12/31 23:47:12;;;;;;;36.53;28.07;;;14.10;99.90;;;;;;10211307;29;20306;-90
2021/12/31 23:52:14;;;;;;;37.17;26.30;;;14.20;99.90;;;;;;10207869;29;20250;-90
2021/12/31 23:57:21;;;;;;;35.27;25.70;;;14.30;99.90;;;;;;10208749;29;20247;-91
